sensor_id;sensor_type;location;lat;lon;timestamp;temperature;humidity
75489;HTU21D;64069;46.396;48.102;2024-01-30T00:01:43;-12.06;87.25
75489;HTU21D;64069;46.396;48.102;2024-01-30T00:04:09;-12.08;87.24
75489;HTU21D;64069;46.396;48.102;2024-01-30T00:06:34;-12.10;87.24
75489;HTU21D;64069;46.396;48.102;2024-01-30T00:09:00;-12.14;87.23
75489;HTU21D;64069;46.396;48.102;2024-01-30T00:11:26;-12.24;87.24
75489;HTU21D;64069;46.396;48.102;2024-01-30T00:13:52;-12.35;87.35
75489;HTU21D;64069;46.396;48.102;2024-01-30T00:16:22;-12.43;87.44
75489;HTU21D;64069;46.396;48.102;2024-01-30T00:18:52;-12.48;87.50
75489;HTU21D;64069;46.396;48.102;2024-01-30T00:21:18;-12.55;87.48
75489;HTU21D;64069;46.396;48.102;2024-01-30T00:23:44;-12.62;87.47
75489;HTU21D;64069;46.396;48.102;2024-01-30T00:26:10;-12.63;87.47
75489;HTU21D;64069;46.396;48.102;2024-01-30T00:28:37;-12.63;87.43
75489;HTU21D;64069;46.396;48.102;2024-01-30T00:31:03;-12.64;87.31
75489;HTU21D;64069;46.396;48.102;2024-01-30T00:33:29;-12.71;87.24
75489;HTU21D;64069;46.396;48.102;2024-01-30T00:35:56;-12.78;87.25
75489;HTU21D;64069;46.396;48.102;2024-01-30T00:38:22;-12.87;87.22
75489;HTU21D;64069;46.396;48.102;2024-01-30T00:40:48;-12.93;87.27
75489;HTU21D;64069;46.396;48.102;2024-01-30T00:43:14;-12.93;87.32
75489;HTU21D;64069;46.396;48.102;2024-01-30T00:45:39;-12.95;87.27
75489;HTU21D;64069;46.396;48.102;2024-01-30T00:48:05;-12.96;87.25
75489;HTU21D;64069;46.396;48.102;2024-01-30T00:50:31;-12.96;87.20
75489;HTU21D;64069;46.396;48.102;2024-01-30T00:52:57;-12.96;87.20
75489;HTU21D;64069;46.396;48.102;2024-01-30T00:55:23;-12.93;87.19
75489;HTU21D;64069;46.396;48.102;2024-01-30T00:57:48;-12.91;87.15
75489;HTU21D;64069;46.396;48.102;2024-01-30T01:00:14;-12.91;87.14
75489;HTU21D;64069;46.396;48.102;2024-01-30T01:02:43;-12.92;87.09
75489;HTU21D;64069;46.396;48.102;2024-01-30T01:05:10;-12.97;87.07
75489;HTU21D;64069;46.396;48.102;2024-01-30T01:07:36;-13.04;87.09
75489;HTU21D;64069;46.396;48.102;2024-01-30T01:10:02;-13.11;87.12
75489;HTU21D;64069;46.396;48.102;2024-01-30T01:12:28;-13.12;87.15
75489;HTU21D;64069;46.396;48.102;2024-01-30T01:14:54;-13.13;87.13
75489;HTU21D;64069;46.396;48.102;2024-01-30T01:17:20;-13.12;87.10
75489;HTU21D;64069;46.396;48.102;2024-01-30T01:19:45;-13.09;87.07
75489;HTU21D;64069;46.396;48.102;2024-01-30T01:22:11;-13.09;87.03
75489;HTU21D;64069;46.396;48.102;2024-01-30T01:24:37;-13.06;86.99
75489;HTU21D;64069;46.396;48.102;2024-01-30T01:27:03;-13.07;86.98
75489;HTU21D;64069;46.396;48.102;2024-01-30T01:29:29;-13.10;87.01
75489;HTU21D;64069;46.396;48.102;2024-01-30T01:31:55;-13.15;87.02
75489;HTU21D;64069;46.396;48.102;2024-01-30T01:34:21;-13.19;87.05
75489;HTU21D;64069;46.396;48.102;2024-01-30T01:36:47;-13.23;87.06
75489;HTU21D;64069;46.396;48.102;2024-01-30T01:39:13;-13.25;87.06
75489;HTU21D;64069;46.396;48.102;2024-01-30T01:41:39;-13.25;87.09
75489;HTU21D;64069;46.396;48.102;2024-01-30T01:44:04;-13.22;87.06
75489;HTU21D;64069;46.396;48.102;2024-01-30T01:46:33;-13.21;87.09
75489;HTU21D;64069;46.396;48.102;2024-01-30T01:48:58;-13.21;87.03
75489;HTU21D;64069;46.396;48.102;2024-01-30T01:51:26;-13.18;87.08
75489;HTU21D;64069;46.396;48.102;2024-01-30T01:53:53;-13.18;87.08
75489;HTU21D;64069;46.396;48.102;2024-01-30T01:56:19;-13.21;87.04
75489;HTU21D;64069;46.396;48.102;2024-01-30T01:58:45;-13.19;87.04
75489;HTU21D;64069;46.396;48.102;2024-01-30T02:01:12;-13.22;87.09
75489;HTU21D;64069;46.396;48.102;2024-01-30T02:03:39;-13.22;87.12
75489;HTU21D;64069;46.396;48.102;2024-01-30T02:06:05;-13.22;87.06
75489;HTU21D;64069;46.396;48.102;2024-01-30T02:08:31;-13.23;87.06
75489;HTU21D;64069;46.396;48.102;2024-01-30T02:10:57;-13.22;87.09
75489;HTU21D;64069;46.396;48.102;2024-01-30T02:13:23;-13.21;87.11
75489;HTU21D;64069;46.396;48.102;2024-01-30T02:15:49;-13.18;87.08
75489;HTU21D;64069;46.396;48.102;2024-01-30T02:18:16;-13.16;87.06
75489;HTU21D;64069;46.396;48.102;2024-01-30T02:20:41;-13.13;87.09
75489;HTU21D;64069;46.396;48.102;2024-01-30T02:23:07;-13.12;87.09
75489;HTU21D;64069;46.396;48.102;2024-01-30T02:25:38;-13.10;87.05
75489;HTU21D;64069;46.396;48.102;2024-01-30T02:28:03;-13.09;87.05
75489;HTU21D;64069;46.396;48.102;2024-01-30T02:30:29;-13.08;87.08
75489;HTU21D;64069;46.396;48.102;2024-01-30T02:32:55;-13.10;87.10
75489;HTU21D;64069;46.396;48.102;2024-01-30T02:35:21;-13.13;87.12
75489;HTU21D;64069;46.396;48.102;2024-01-30T02:37:47;-13.15;87.16
75489;HTU21D;64069;46.396;48.102;2024-01-30T02:40:12;-13.14;87.19
75489;HTU21D;64069;46.396;48.102;2024-01-30T02:42:39;-13.12;87.19
75489;HTU21D;64069;46.396;48.102;2024-01-30T02:45:05;-13.15;87.22
75489;HTU21D;64069;46.396;48.102;2024-01-30T02:47:31;-13.18;87.19
75489;HTU21D;64069;46.396;48.102;2024-01-30T02:49:57;-13.25;87.25
75489;HTU21D;64069;46.396;48.102;2024-01-30T02:52:22;-13.29;87.26
75489;HTU21D;64069;46.396;48.102;2024-01-30T02:54:48;-13.34;87.30
75489;HTU21D;64069;46.396;48.102;2024-01-30T02:57:14;-13.40;87.33
75489;HTU21D;64069;46.396;48.102;2024-01-30T02:59:40;-13.45;87.34
75489;HTU21D;64069;46.396;48.102;2024-01-30T03:02:05;-13.51;87.35
75489;HTU21D;64069;46.396;48.102;2024-01-30T03:04:31;-13.57;87.35
75489;HTU21D;64069;46.396;48.102;2024-01-30T03:06:57;-13.60;87.37
75489;HTU21D;64069;46.396;48.102;2024-01-30T03:09:23;-13.68;87.37
75489;HTU21D;64069;46.396;48.102;2024-01-30T03:11:48;-13.74;87.39
75489;HTU21D;64069;46.396;48.102;2024-01-30T03:14:14;-13.77;87.35
75489;HTU21D;64069;46.396;48.102;2024-01-30T03:16:40;-13.80;87.35
75489;HTU21D;64069;46.396;48.102;2024-01-30T03:19:06;-13.80;87.33
75489;HTU21D;64069;46.396;48.102;2024-01-30T03:21:33;-13.82;87.30
75489;HTU21D;64069;46.396;48.102;2024-01-30T03:23:59;-13.83;87.32
75489;HTU21D;64069;46.396;48.102;2024-01-30T03:26:24;-13.81;87.26
75489;HTU21D;64069;46.396;48.102;2024-01-30T03:28:50;-13.81;87.22
75489;HTU21D;64069;46.396;48.102;2024-01-30T03:31:16;-13.80;87.21
75489;HTU21D;64069;46.396;48.102;2024-01-30T03:33:42;-13.73;87.22
75489;HTU21D;64069;46.396;48.102;2024-01-30T03:36:08;-13.67;87.19
75489;HTU21D;64069;46.396;48.102;2024-01-30T03:38:34;-13.63;87.14
75489;HTU21D;64069;46.396;48.102;2024-01-30T03:41:00;-13.63;87.11
75489;HTU21D;64069;46.396;48.102;2024-01-30T03:43:26;-13.62;87.12
75489;HTU21D;64069;46.396;48.102;2024-01-30T03:45:52;-13.65;87.14
75489;HTU21D;64069;46.396;48.102;2024-01-30T03:48:18;-13.66;87.18
75489;HTU21D;64069;46.396;48.102;2024-01-30T03:50:44;0.00;87.20
75489;HTU21D;64069;46.396;48.102;2024-01-30T03:53:10;-13.68;87.25
75489;HTU21D;64069;46.396;48.102;2024-01-30T03:55:36;-13.69;87.25
75489;HTU21D;64069;46.396;48.102;2024-01-30T03:58:02;-13.71;87.29
75489;HTU21D;64069;46.396;48.102;2024-01-30T04:00:27;-13.71;87.29
75489;HTU21D;64069;46.396;48.102;2024-01-30T04:02:53;-13.72;87.32
75489;HTU21D;64069;46.396;48.102;2024-01-30T04:05:19;-13.70;87.35
75489;HTU21D;64069;46.396;48.102;2024-01-30T04:07:45;-13.70;87.32
75489;HTU21D;64069;46.396;48.102;2024-01-30T04:10:10;-13.71;87.31
75489;HTU21D;64069;46.396;48.102;2024-01-30T04:12:36;-13.71;87.30
75489;HTU21D;64069;46.396;48.102;2024-01-30T04:15:02;-13.70;87.32
75489;HTU21D;64069;46.396;48.102;2024-01-30T04:17:29;0.00;87.28
75489;HTU21D;64069;46.396;48.102;2024-01-30T04:19:55;-13.68;87.24
75489;HTU21D;64069;46.396;48.102;2024-01-30T04:22:20;-13.68;87.23
75489;HTU21D;64069;46.396;48.102;2024-01-30T04:24:46;-13.63;87.24
75489;HTU21D;64069;46.396;48.102;2024-01-30T04:27:12;-13.58;87.15
75489;HTU21D;64069;46.396;48.102;2024-01-30T04:29:38;0.00;87.07
75489;HTU21D;64069;46.396;48.102;2024-01-30T04:32:04;-13.47;87.05
75489;HTU21D;64069;46.396;48.102;2024-01-30T04:34:30;-13.39;87.03
75489;HTU21D;64069;46.396;48.102;2024-01-30T04:36:56;-13.31;86.92
75489;HTU21D;64069;46.396;48.102;2024-01-30T04:39:22;-13.29;86.82
75489;HTU21D;64069;46.396;48.102;2024-01-30T04:41:48;-13.25;86.81
75489;HTU21D;64069;46.396;48.102;2024-01-30T04:44:14;-13.15;86.80
75489;HTU21D;64069;46.396;48.102;2024-01-30T04:46:40;-13.00;86.74
75489;HTU21D;64069;46.396;48.102;2024-01-30T04:49:05;-12.91;86.61
75489;HTU21D;64069;46.396;48.102;2024-01-30T04:51:33;-12.79;86.54
75489;HTU21D;64069;46.396;48.102;2024-01-30T04:53:59;-12.70;86.41
75489;HTU21D;64069;46.396;48.102;2024-01-30T04:56:24;-12.60;86.38
75489;HTU21D;64069;46.396;48.102;2024-01-30T04:58:50;-12.49;86.38
75489;HTU21D;64069;46.396;48.102;2024-01-30T05:01:16;-12.32;86.34
75489;HTU21D;64069;46.396;48.102;2024-01-30T05:03:42;-12.13;86.29
75489;HTU21D;64069;46.396;48.102;2024-01-30T05:06:11;-11.95;86.20
75489;HTU21D;64069;46.396;48.102;2024-01-30T05:08:38;-11.80;86.10
75489;HTU21D;64069;46.396;48.102;2024-01-30T05:11:05;-11.69;86.00
75489;HTU21D;64069;46.396;48.102;2024-01-30T05:13:32;-11.55;85.98
75489;HTU21D;64069;46.396;48.102;2024-01-30T05:15:59;-11.46;85.90
75489;HTU21D;64069;46.396;48.102;2024-01-30T05:18:27;0.00;85.85
75489;HTU21D;64069;46.396;48.102;2024-01-30T05:20:54;-11.26;85.86
75489;HTU21D;64069;46.396;48.102;2024-01-30T05:23:20;-11.14;85.93
75489;HTU21D;64069;46.396;48.102;2024-01-30T05:25:46;-10.94;85.92
75489;HTU21D;64069;46.396;48.102;2024-01-30T05:28:11;-10.75;85.90
75489;HTU21D;64069;46.396;48.102;2024-01-30T05:30:37;-10.58;85.84
75489;HTU21D;64069;46.396;48.102;2024-01-30T05:33:03;-10.37;85.79
75489;HTU21D;64069;46.396;48.102;2024-01-30T05:35:29;0.00;85.73
75489;HTU21D;64069;46.396;48.102;2024-01-30T05:37:55;-9.97;85.67
75489;HTU21D;64069;46.396;48.102;2024-01-30T05:40:20;-9.76;85.59
75489;HTU21D;64069;46.396;48.102;2024-01-30T05:42:46;-9.61;85.52
75489;HTU21D;64069;46.396;48.102;2024-01-30T05:45:12;-9.52;85.43
75489;HTU21D;64069;46.396;48.102;2024-01-30T05:47:38;-9.38;85.53
75489;HTU21D;64069;46.396;48.102;2024-01-30T05:50:04;-9.20;85.53
75489;HTU21D;64069;46.396;48.102;2024-01-30T05:52:30;-9.03;85.51
75489;HTU21D;64069;46.396;48.102;2024-01-30T05:54:56;-8.96;85.35
75489;HTU21D;64069;46.396;48.102;2024-01-30T05:57:22;-8.88;85.32
75489;HTU21D;64069;46.396;48.102;2024-01-30T05:59:48;0.00;85.43
75489;HTU21D;64069;46.396;48.102;2024-01-30T06:02:13;-8.69;85.42
75489;HTU21D;64069;46.396;48.102;2024-01-30T06:04:40;-8.59;85.48
75489;HTU21D;64069;46.396;48.102;2024-01-30T06:07:05;-8.44;85.63
75489;HTU21D;64069;46.396;48.102;2024-01-30T06:09:31;-8.37;85.29
75489;HTU21D;64069;46.396;48.102;2024-01-30T06:11:57;-8.35;85.29
75489;HTU21D;64069;46.396;48.102;2024-01-30T06:14:23;-8.20;85.55
75489;HTU21D;64069;46.396;48.102;2024-01-30T06:16:49;-7.98;85.53
75489;HTU21D;64069;46.396;48.102;2024-01-30T06:19:15;-7.82;85.26
75489;HTU21D;64069;46.396;48.102;2024-01-30T06:21:41;-7.68;85.19
75489;HTU21D;64069;46.396;48.102;2024-01-30T06:24:07;-7.60;85.04
75489;HTU21D;64069;46.396;48.102;2024-01-30T06:26:33;-7.51;84.81
75489;HTU21D;64069;46.396;48.102;2024-01-30T06:28:59;-7.37;85.06
75489;HTU21D;64069;46.396;48.102;2024-01-30T06:31:25;-7.17;85.03
75489;HTU21D;64069;46.396;48.102;2024-01-30T06:33:52;-6.93;84.90
75489;HTU21D;64069;46.396;48.102;2024-01-30T06:36:18;-6.79;84.70
75489;HTU21D;64069;46.396;48.102;2024-01-30T06:38:44;-6.70;84.68
75489;HTU21D;64069;46.396;48.102;2024-01-30T06:41:10;-6.61;84.76
75489;HTU21D;64069;46.396;48.102;2024-01-30T06:43:36;-6.57;84.74
75489;HTU21D;64069;46.396;48.102;2024-01-30T06:46:01;-6.49;84.79
75489;HTU21D;64069;46.396;48.102;2024-01-30T06:48:28;-6.42;84.73
75489;HTU21D;64069;46.396;48.102;2024-01-30T06:50:53;-6.38;84.57
75489;HTU21D;64069;46.396;48.102;2024-01-30T06:53:19;-6.48;84.30
75489;HTU21D;64069;46.396;48.102;2024-01-30T06:55:45;-6.45;84.35
75489;HTU21D;64069;46.396;48.102;2024-01-30T06:58:11;-6.38;84.06
75489;HTU21D;64069;46.396;48.102;2024-01-30T07:00:37;-6.26;84.15
75489;HTU21D;64069;46.396;48.102;2024-01-30T07:03:03;-6.08;84.12
75489;HTU21D;64069;46.396;48.102;2024-01-30T07:05:29;-5.97;83.90
75489;HTU21D;64069;46.396;48.102;2024-01-30T07:07:55;-5.82;83.94
75489;HTU21D;64069;46.396;48.102;2024-01-30T07:10:20;-5.73;83.87
75489;HTU21D;64069;46.396;48.102;2024-01-30T07:12:46;-5.71;83.58
75489;HTU21D;64069;46.396;48.102;2024-01-30T07:15:12;-5.59;83.81
75489;HTU21D;64069;46.396;48.102;2024-01-30T07:17:42;-5.55;83.59
75489;HTU21D;64069;46.396;48.102;2024-01-30T07:20:07;-5.44;83.65
75489;HTU21D;64069;46.396;48.102;2024-01-30T07:22:34;-5.43;83.37
75489;HTU21D;64069;46.396;48.102;2024-01-30T07:25:00;-5.38;83.42
75489;HTU21D;64069;46.396;48.102;2024-01-30T07:27:26;-5.33;82.85
75489;HTU21D;64069;46.396;48.102;2024-01-30T07:29:52;-5.33;82.89
75489;HTU21D;64069;46.396;48.102;2024-01-30T07:32:18;-5.31;82.69
75489;HTU21D;64069;46.396;48.102;2024-01-30T07:34:44;-5.37;82.29
75489;HTU21D;64069;46.396;48.102;2024-01-30T07:37:10;-5.48;81.46
75489;HTU21D;64069;46.396;48.102;2024-01-30T07:39:36;-5.39;81.98
75489;HTU21D;64069;46.396;48.102;2024-01-30T07:42:02;-5.33;81.83
75489;HTU21D;64069;46.396;48.102;2024-01-30T07:44:28;-5.25;81.77
75489;HTU21D;64069;46.396;48.102;2024-01-30T07:46:54;-5.16;81.77
75489;HTU21D;64069;46.396;48.102;2024-01-30T07:49:20;-5.00;81.80
75489;HTU21D;64069;46.396;48.102;2024-01-30T07:51:46;-5.05;81.04
75489;HTU21D;64069;46.396;48.102;2024-01-30T07:54:14;-4.98;81.16
75489;HTU21D;64069;46.396;48.102;2024-01-30T07:56:40;-4.97;81.01
75489;HTU21D;64069;46.396;48.102;2024-01-30T07:59:10;-4.90;80.91
75489;HTU21D;64069;46.396;48.102;2024-01-30T08:01:37;-4.86;80.88
75489;HTU21D;64069;46.396;48.102;2024-01-30T08:04:02;0.00;80.65
75489;HTU21D;64069;46.396;48.102;2024-01-30T08:06:28;-4.81;80.45
75489;HTU21D;64069;46.396;48.102;2024-01-30T08:08:54;-4.60;80.71
75489;HTU21D;64069;46.396;48.102;2024-01-30T08:11:20;-4.36;80.68
75489;HTU21D;64069;46.396;48.102;2024-01-30T08:13:51;-4.23;80.25
75489;HTU21D;64069;46.396;48.102;2024-01-30T08:16:17;-4.14;80.17
75489;HTU21D;64069;46.396;48.102;2024-01-30T08:18:43;-3.97;80.10
75489;HTU21D;64069;46.396;48.102;2024-01-30T08:21:09;-3.92;79.81
75489;HTU21D;64069;46.396;48.102;2024-01-30T08:23:35;-3.80;79.79
75489;HTU21D;64069;46.396;48.102;2024-01-30T08:26:00;-3.76;79.48
75489;HTU21D;64069;46.396;48.102;2024-01-30T08:28:26;-3.76;79.27
75489;HTU21D;64069;46.396;48.102;2024-01-30T08:30:52;-3.74;79.16
75489;HTU21D;64069;46.396;48.102;2024-01-30T08:33:18;-3.62;79.27
75489;HTU21D;64069;46.396;48.102;2024-01-30T08:35:44;-3.54;78.96
75489;HTU21D;64069;46.396;48.102;2024-01-30T08:38:09;-3.50;78.71
75489;HTU21D;64069;46.396;48.102;2024-01-30T08:40:38;-3.49;78.51
75489;HTU21D;64069;46.396;48.102;2024-01-30T08:43:03;-3.61;77.81
75489;HTU21D;64069;46.396;48.102;2024-01-30T08:45:29;-3.57;78.15
75489;HTU21D;64069;46.396;48.102;2024-01-30T08:47:56;-3.46;78.17
75489;HTU21D;64069;46.396;48.102;2024-01-30T08:50:22;-3.37;78.03
75489;HTU21D;64069;46.396;48.102;2024-01-30T08:52:48;-3.23;78.08
75489;HTU21D;64069;46.396;48.102;2024-01-30T08:55:14;-3.18;77.78
75489;HTU21D;64069;46.396;48.102;2024-01-30T08:57:39;-3.07;77.89
75489;HTU21D;64069;46.396;48.102;2024-01-30T09:00:05;-2.98;77.81
75489;HTU21D;64069;46.396;48.102;2024-01-30T09:02:34;-2.88;77.92
75489;HTU21D;64069;46.396;48.102;2024-01-30T09:05:00;-2.80;77.66
75489;HTU21D;64069;46.396;48.102;2024-01-30T09:07:26;-2.74;77.44
75489;HTU21D;64069;46.396;48.102;2024-01-30T09:09:52;-2.72;77.13
75489;HTU21D;64069;46.396;48.102;2024-01-30T09:12:17;-2.77;76.16
75489;HTU21D;64069;46.396;48.102;2024-01-30T09:14:43;-2.73;76.19
75489;HTU21D;64069;46.396;48.102;2024-01-30T09:17:09;-2.56;76.38
75489;HTU21D;64069;46.396;48.102;2024-01-30T09:19:35;-2.57;75.18
75489;HTU21D;64069;46.396;48.102;2024-01-30T09:22:01;-2.58;75.21
75489;HTU21D;64069;46.396;48.102;2024-01-30T09:24:27;-2.57;74.85
75489;HTU21D;64069;46.396;48.102;2024-01-30T09:26:52;-2.41;75.68
75489;HTU21D;64069;46.396;48.102;2024-01-30T09:29:18;-2.26;75.85
75489;HTU21D;64069;46.396;48.102;2024-01-30T09:31:47;-2.16;76.00
75489;HTU21D;64069;46.396;48.102;2024-01-30T09:34:13;-2.12;75.79
75489;HTU21D;64069;46.396;48.102;2024-01-30T09:36:39;-2.07;75.73
75489;HTU21D;64069;46.396;48.102;2024-01-30T09:39:05;-2.07;75.57
75489;HTU21D;64069;46.396;48.102;2024-01-30T09:41:32;-2.06;75.75
75489;HTU21D;64069;46.396;48.102;2024-01-30T09:43:58;0.00;75.50
75489;HTU21D;64069;46.396;48.102;2024-01-30T09:46:26;-2.06;75.71
75489;HTU21D;64069;46.396;48.102;2024-01-30T09:48:53;-2.09;75.74
75489;HTU21D;64069;46.396;48.102;2024-01-30T09:51:19;-2.16;74.28
75489;HTU21D;64069;46.396;48.102;2024-01-30T09:53:46;-2.18;74.43
75489;HTU21D;64069;46.396;48.102;2024-01-30T09:56:12;-2.28;72.51
75489;HTU21D;64069;46.396;48.102;2024-01-30T09:58:38;-2.30;73.62
75489;HTU21D;64069;46.396;48.102;2024-01-30T10:01:05;-2.21;74.33
75489;HTU21D;64069;46.396;48.102;2024-01-30T10:03:31;-2.16;73.84
75489;HTU21D;64069;46.396;48.102;2024-01-30T10:05:57;0.00;73.32
75489;HTU21D;64069;46.396;48.102;2024-01-30T10:08:23;0.00;73.89
75489;HTU21D;64069;46.396;48.102;2024-01-30T10:10:49;-2.04;73.49
75489;HTU21D;64069;46.396;48.102;2024-01-30T10:13:15;-1.98;73.39
75489;HTU21D;64069;46.396;48.102;2024-01-30T10:15:41;-1.90;73.79
75489;HTU21D;64069;46.396;48.102;2024-01-30T10:18:11;-1.80;73.92
75489;HTU21D;64069;46.396;48.102;2024-01-30T10:20:36;-1.83;72.82
75489;HTU21D;64069;46.396;48.102;2024-01-30T10:23:02;-1.87;73.22
75489;HTU21D;64069;46.396;48.102;2024-01-30T10:25:30;-1.82;73.69
75489;HTU21D;64069;46.396;48.102;2024-01-30T10:27:58;-1.77;73.51
75489;HTU21D;64069;46.396;48.102;2024-01-30T10:30:24;-1.79;72.61
75489;HTU21D;64069;46.396;48.102;2024-01-30T10:32:50;-1.80;72.42
75489;HTU21D;64069;46.396;48.102;2024-01-30T10:35:16;-1.84;72.35
75489;HTU21D;64069;46.396;48.102;2024-01-30T10:37:48;-1.86;71.91
75489;HTU21D;64069;46.396;48.102;2024-01-30T10:40:14;-1.86;72.46
75489;HTU21D;64069;46.396;48.102;2024-01-30T10:42:44;-1.82;72.33
75489;HTU21D;64069;46.396;48.102;2024-01-30T10:45:13;-1.88;71.46
75489;HTU21D;64069;46.396;48.102;2024-01-30T10:47:42;-1.90;71.95
75489;HTU21D;64069;46.396;48.102;2024-01-30T10:50:09;-1.91;72.12
75489;HTU21D;64069;46.396;48.102;2024-01-30T10:52:36;-1.92;71.23
75489;HTU21D;64069;46.396;48.102;2024-01-30T10:55:02;-2.03;69.87
75489;HTU21D;64069;46.396;48.102;2024-01-30T10:57:30;-2.05;70.45
75489;HTU21D;64069;46.396;48.102;2024-01-30T10:59:57;-2.06;69.32
75489;HTU21D;64069;46.396;48.102;2024-01-30T11:02:24;-2.12;69.26
75489;HTU21D;64069;46.396;48.102;2024-01-30T11:04:54;-2.15;70.06
75489;HTU21D;64069;46.396;48.102;2024-01-30T11:07:24;-2.18;69.47
75489;HTU21D;64069;46.396;48.102;2024-01-30T11:12:16;-2.27;68.47
75489;HTU21D;64069;46.396;48.102;2024-01-30T11:14:42;-2.35;68.92
75489;HTU21D;64069;46.396;48.102;2024-01-30T11:17:09;-2.43;68.70
75489;HTU21D;64069;46.396;48.102;2024-01-30T11:19:37;-2.48;69.20
75489;HTU21D;64069;46.396;48.102;2024-01-30T11:22:03;-2.48;69.59
75489;HTU21D;64069;46.396;48.102;2024-01-30T11:24:36;-2.49;69.27
75489;HTU21D;64069;46.396;48.102;2024-01-30T11:27:07;-2.51;69.54
75489;HTU21D;64069;46.396;48.102;2024-01-30T11:29:33;-2.44;70.31
75489;HTU21D;64069;46.396;48.102;2024-01-30T11:32:00;-2.39;69.84
75489;HTU21D;64069;46.396;48.102;2024-01-30T11:34:27;-2.44;70.13
75489;HTU21D;64069;46.396;48.102;2024-01-30T11:36:55;-2.52;70.10
75489;HTU21D;64069;46.396;48.102;2024-01-30T11:39:27;-2.52;70.74
75489;HTU21D;64069;46.396;48.102;2024-01-30T11:41:53;0.00;70.97
75489;HTU21D;64069;46.396;48.102;2024-01-30T11:44:19;-2.46;71.34
75489;HTU21D;64069;46.396;48.102;2024-01-30T11:46:46;-2.45;71.56
75489;HTU21D;64069;46.396;48.102;2024-01-30T11:49:12;-2.42;71.80
75489;HTU21D;64069;46.396;48.102;2024-01-30T11:51:38;-2.41;71.74
75489;HTU21D;64069;46.396;48.102;2024-01-30T11:54:04;-2.39;71.91
75489;HTU21D;64069;46.396;48.102;2024-01-30T11:56:30;-2.38;72.15
75489;HTU21D;64069;46.396;48.102;2024-01-30T11:58:56;-2.39;72.30
75489;HTU21D;64069;46.396;48.102;2024-01-30T12:01:21;-2.38;72.58
75489;HTU21D;64069;46.396;48.102;2024-01-30T12:03:50;-2.39;72.76
75489;HTU21D;64069;46.396;48.102;2024-01-30T12:06:16;-2.44;73.06
75489;HTU21D;64069;46.396;48.102;2024-01-30T12:08:42;-2.52;73.17
75489;HTU21D;64069;46.396;48.102;2024-01-30T12:11:09;0.00;73.44
75489;HTU21D;64069;46.396;48.102;2024-01-30T12:13:35;-2.72;73.80
75489;HTU21D;64069;46.396;48.102;2024-01-30T12:16:01;-2.82;74.14
75489;HTU21D;64069;46.396;48.102;2024-01-30T12:18:27;-2.89;74.44
75489;HTU21D;64069;46.396;48.102;2024-01-30T12:20:59;-2.93;74.70
75489;HTU21D;64069;46.396;48.102;2024-01-30T12:23:26;-2.98;74.83
75489;HTU21D;64069;46.396;48.102;2024-01-30T12:25:52;-3.02;75.00
75489;HTU21D;64069;46.396;48.102;2024-01-30T12:28:19;-3.03;75.12
75489;HTU21D;64069;46.396;48.102;2024-01-30T12:30:45;-3.08;75.27
75489;HTU21D;64069;46.396;48.102;2024-01-30T12:33:15;-3.08;75.41
75489;HTU21D;64069;46.396;48.102;2024-01-30T12:35:45;0.00;75.54
75489;HTU21D;64069;46.396;48.102;2024-01-30T12:38:11;-3.20;75.75
75489;HTU21D;64069;46.396;48.102;2024-01-30T12:40:37;-3.20;75.84
75489;HTU21D;64069;46.396;48.102;2024-01-30T12:43:03;-3.24;75.99
75489;HTU21D;64069;46.396;48.102;2024-01-30T12:45:29;-3.26;76.09
75489;HTU21D;64069;46.396;48.102;2024-01-30T12:47:55;-3.31;76.21
75489;HTU21D;64069;46.396;48.102;2024-01-30T12:50:21;-3.33;76.41
75489;HTU21D;64069;46.396;48.102;2024-01-30T12:52:48;0.00;76.48
75489;HTU21D;64069;46.396;48.102;2024-01-30T12:55:13;-3.33;76.58
75489;HTU21D;64069;46.396;48.102;2024-01-30T12:57:39;-3.36;76.72
75489;HTU21D;64069;46.396;48.102;2024-01-30T13:00:05;-3.41;76.89
75489;HTU21D;64069;46.396;48.102;2024-01-30T13:02:34;0.00;77.11
75489;HTU21D;64069;46.396;48.102;2024-01-30T13:05:02;-3.56;77.39
75489;HTU21D;64069;46.396;48.102;2024-01-30T13:07:28;-3.64;77.63
75489;HTU21D;64069;46.396;48.102;2024-01-30T13:09:54;-3.72;77.89
75489;HTU21D;64069;46.396;48.102;2024-01-30T13:12:20;-3.83;78.17
75489;HTU21D;64069;46.396;48.102;2024-01-30T13:14:45;-3.92;78.30
75489;HTU21D;64069;46.396;48.102;2024-01-30T13:17:11;-4.01;78.51
75489;HTU21D;64069;46.396;48.102;2024-01-30T13:19:37;-4.13;78.66
75489;HTU21D;64069;46.396;48.102;2024-01-30T13:22:03;-4.23;78.86
75489;HTU21D;64069;46.396;48.102;2024-01-30T13:24:29;-4.35;79.03
75489;HTU21D;64069;46.396;48.102;2024-01-30T13:26:54;-4.43;79.26
75489;HTU21D;64069;46.396;48.102;2024-01-30T13:29:20;-4.51;79.49
75489;HTU21D;64069;46.396;48.102;2024-01-30T13:31:46;-4.59;79.82
75489;HTU21D;64069;46.396;48.102;2024-01-30T13:34:12;-4.66;80.10
75489;HTU21D;64069;46.396;48.102;2024-01-30T13:36:39;-4.74;80.44
75489;HTU21D;64069;46.396;48.102;2024-01-30T13:39:05;-4.81;80.49
75489;HTU21D;64069;46.396;48.102;2024-01-30T13:41:34;-4.84;80.49
75489;HTU21D;64069;46.396;48.102;2024-01-30T13:44:00;-4.88;80.84
75489;HTU21D;64069;46.396;48.102;2024-01-30T13:46:29;-4.94;81.14
75489;HTU21D;64069;46.396;48.102;2024-01-30T13:48:55;-4.98;81.52
75489;HTU21D;64069;46.396;48.102;2024-01-30T13:51:20;-5.01;81.47
75489;HTU21D;64069;46.396;48.102;2024-01-30T13:53:46;-5.07;81.70
75489;HTU21D;64069;46.396;48.102;2024-01-30T13:56:12;-5.10;81.75
75489;HTU21D;64069;46.396;48.102;2024-01-30T13:58:38;-5.11;81.72
75489;HTU21D;64069;46.396;48.102;2024-01-30T14:01:03;-5.13;81.62
75489;HTU21D;64069;46.396;48.102;2024-01-30T14:03:30;-5.13;81.52
75489;HTU21D;64069;46.396;48.102;2024-01-30T14:05:56;-5.13;81.46
75489;HTU21D;64069;46.396;48.102;2024-01-30T14:08:21;-5.14;81.43
75489;HTU21D;64069;46.396;48.102;2024-01-30T14:10:49;-5.14;81.43
75489;HTU21D;64069;46.396;48.102;2024-01-30T14:13:15;-5.16;81.42
75489;HTU21D;64069;46.396;48.102;2024-01-30T14:15:41;-5.16;81.41
75489;HTU21D;64069;46.396;48.102;2024-01-30T14:18:06;-5.19;81.51
75489;HTU21D;64069;46.396;48.102;2024-01-30T14:20:34;-5.20;81.55
75489;HTU21D;64069;46.396;48.102;2024-01-30T14:23:00;-5.24;81.76
75489;HTU21D;64069;46.396;48.102;2024-01-30T14:25:26;-5.27;81.99
75489;HTU21D;64069;46.396;48.102;2024-01-30T14:27:51;-5.28;82.14
75489;HTU21D;64069;46.396;48.102;2024-01-30T14:30:17;-5.29;82.29
75489;HTU21D;64069;46.396;48.102;2024-01-30T14:32:43;-5.31;82.25
75489;HTU21D;64069;46.396;48.102;2024-01-30T14:35:10;-5.32;82.26
75489;HTU21D;64069;46.396;48.102;2024-01-30T14:37:37;-5.30;82.32
75489;HTU21D;64069;46.396;48.102;2024-01-30T14:40:03;-5.30;82.90
75489;HTU21D;64069;46.396;48.102;2024-01-30T14:42:29;-5.32;82.90
75489;HTU21D;64069;46.396;48.102;2024-01-30T14:44:57;-5.34;82.87
75489;HTU21D;64069;46.396;48.102;2024-01-30T14:47:23;-5.33;82.97
75489;HTU21D;64069;46.396;48.102;2024-01-30T14:49:49;-5.35;83.42
75489;HTU21D;64069;46.396;48.102;2024-01-30T14:52:15;-5.38;83.48
75489;HTU21D;64069;46.396;48.102;2024-01-30T14:54:40;-5.39;83.50